createdAt,value
2022-11-25T00:01:07.718Z,30.45
2022-11-25T00:03:35.314Z,29.35
2022-11-25T00:06:14.448Z,31.13
2022-11-25T00:08:42.668Z,31.95
2022-11-25T00:11:09.479Z,30.13
2022-11-25T00:13:36.803Z,30.23
2022-11-25T00:16:12.041Z,32.45
2022-11-25T00:18:39.167Z,29.00
2022-11-25T00:21:10.288Z,32.28
2022-11-25T00:23:37.572Z,31.20
2022-11-25T00:26:15.090Z,28.80
2022-11-25T00:28:44.887Z,32.15
2022-11-25T00:31:14.002Z,30.02
2022-11-25T00:33:40.914Z,32.08
2022-11-25T00:36:25.049Z,32.72
2022-11-25T00:39:03.389Z,33.65
2022-11-25T00:44:37.016Z,27.75
2022-11-25T00:47:18.519Z,32.03
2022-11-25T00:49:49.501Z,30.70
2022-11-25T00:52:18.694Z,30.52
2022-11-25T00:54:47.581Z,28.38
2022-11-25T00:57:15.974Z,29.73
2022-11-25T00:59:42.556Z,27.65
2022-11-25T01:02:10.959Z,31.77
2022-11-25T01:04:37.911Z,31.40
2022-11-25T01:07:04.816Z,32.40
2022-11-25T01:09:31.858Z,27.73
2022-11-25T01:11:58.370Z,27.17
2022-11-25T01:14:25.120Z,31.70
2022-11-25T01:16:51.801Z,30.80
2022-11-25T01:19:18.898Z,33.25
2022-11-25T01:21:46.731Z,32.03
2022-11-25T01:24:14.616Z,30.00
2022-11-25T01:26:41.205Z,31.48
2022-11-25T01:29:19.417Z,30.80
2022-11-25T01:31:46.786Z,31.20
2022-11-25T01:34:17.323Z,31.48
2022-11-25T01:36:44.195Z,29.45
2022-11-25T01:39:17.248Z,31.10
2022-11-25T01:41:43.677Z,30.08
2022-11-25T01:44:16.646Z,30.35
2022-11-25T01:46:48.136Z,30.85
2022-11-25T01:49:29.104Z,30.98
2022-11-25T01:52:02.365Z,29.83
2022-11-25T01:54:33.460Z,29.60
2022-11-25T01:57:04.808Z,31.85
2022-11-25T01:59:34.266Z,30.00
2022-11-25T02:02:00.854Z,29.23
2022-11-25T02:04:33.923Z,30.58
2022-11-25T02:07:09.603Z,29.13
2022-11-25T02:09:41.203Z,29.10
2022-11-25T02:12:07.716Z,28.55
2022-11-25T02:14:34.778Z,30.17
2022-11-25T02:17:02.462Z,30.10
2022-11-25T02:19:42.963Z,30.90
2022-11-25T02:22:15.417Z,28.42
2022-11-25T02:24:46.599Z,26.63
2022-11-25T02:27:13.067Z,27.55
2022-11-25T02:29:40.113Z,27.48
2022-11-25T02:32:06.559Z,30.30
2022-11-25T02:34:33.110Z,27.98
2022-11-25T02:37:00.155Z,29.95
2022-11-25T02:39:27.479Z,28.90
2022-11-25T02:41:58.317Z,28.77
2022-11-25T02:44:24.772Z,30.38
2022-11-25T02:46:51.185Z,28.88
2022-11-25T02:49:17.623Z,27.00
2022-11-25T02:51:46.134Z,27.33
2022-11-25T02:54:15.526Z,26.70
2022-11-25T02:56:42.331Z,23.77
2022-11-25T02:59:09.464Z,24.98
2022-11-25T03:01:36.427Z,24.77
2022-11-25T03:04:02.951Z,21.67
2022-11-25T03:06:30.285Z,23.00
2022-11-25T03:08:57.469Z,22.42
2022-11-25T03:11:44.500Z,22.80
2022-11-25T03:14:11.201Z,23.42
2022-11-25T03:16:37.630Z,22.63
2022-11-25T03:19:04.510Z,23.63
2022-11-25T03:21:30.975Z,22.77
2022-11-25T03:23:57.395Z,21.15
2022-11-25T03:26:26.034Z,25.98
2022-11-25T03:28:52.513Z,22.60
2022-11-25T03:31:18.978Z,22.10
2022-11-25T03:33:45.538Z,24.67
2022-11-25T03:36:11.964Z,23.70
2022-11-25T03:38:38.378Z,23.35
2022-11-25T03:41:05.062Z,24.60
2022-11-25T03:43:33.021Z,22.63
2022-11-25T03:45:59.507Z,23.75
2022-11-25T03:48:25.997Z,25.02
2022-11-25T03:50:52.447Z,24.15
2022-11-25T03:53:18.921Z,24.83
2022-11-25T03:55:47.944Z,22.58
2022-11-25T03:58:14.399Z,24.30
2022-11-25T04:00:40.803Z,24.98
2022-11-25T04:03:07.425Z,23.33
2022-11-25T04:05:33.840Z,22.40
2022-11-25T04:08:00.490Z,23.25
2022-11-25T04:10:26.953Z,22.55
2022-11-25T04:12:54.292Z,23.27
2022-11-25T04:15:21.088Z,22.27
2022-11-25T04:17:47.789Z,21.10
2022-11-25T04:20:15.075Z,23.08
2022-11-25T04:22:41.908Z,25.10
2022-11-25T04:25:09.587Z,23.65
2022-11-25T04:27:36.146Z,22.70
2022-11-25T04:30:02.746Z,21.95
2022-11-25T04:32:29.168Z,21.60
2022-11-25T04:34:55.586Z,21.90
2022-11-25T04:37:22.035Z,22.80
2022-11-25T04:39:48.459Z,22.45
2022-11-25T04:42:33.217Z,21.63
2022-11-25T04:45:21.878Z,22.98
2022-11-25T04:47:47.514Z,20.02
2022-11-25T04:50:18.662Z,22.83
2022-11-25T04:52:45.058Z,22.70
2022-11-25T04:55:11.651Z,22.48
2022-11-25T04:57:38.060Z,23.15
2022-11-25T05:00:05.823Z,21.48
2022-11-25T05:02:32.317Z,23.02
2022-11-25T05:04:59.016Z,22.58
2022-11-25T05:07:28.029Z,22.00
2022-11-25T05:09:54.862Z,21.40
2022-11-25T05:12:26.870Z,22.25
2022-11-25T05:17:22.460Z,22.33
2022-11-25T05:19:49.969Z,22.52
2022-11-25T05:22:23.133Z,21.23
2022-11-25T05:24:49.561Z,21.10
2022-11-25T05:27:16.412Z,23.35
2022-11-25T05:29:42.900Z,24.70
2022-11-25T05:32:10.471Z,22.08
2022-11-25T05:34:37.298Z,22.38
2022-11-25T05:37:04.637Z,22.92
2022-11-25T05:39:31.299Z,22.30
2022-11-25T05:41:57.831Z,22.02
2022-11-25T05:44:24.262Z,22.90
2022-11-25T05:46:50.952Z,24.45
2022-11-25T05:49:18.782Z,24.42
2022-11-25T05:51:45.555Z,23.30
2022-11-25T05:54:12.008Z,21.50
2022-11-25T05:56:38.778Z,22.58
2022-11-25T05:59:05.610Z,21.33
2022-11-25T06:01:33.126Z,22.33
2022-11-25T06:04:01.059Z,22.17
2022-11-25T06:06:27.486Z,21.63
2022-11-25T06:08:53.954Z,21.98
2022-11-25T06:11:20.423Z,21.90
2022-11-25T06:13:46.834Z,20.77
2022-11-25T06:16:18.991Z,22.27
2022-11-25T06:18:45.664Z,20.02
2022-11-25T06:21:12.429Z,20.83
2022-11-25T06:23:39.632Z,19.50
2022-11-25T06:26:21.344Z,20.73
2022-11-25T06:28:48.430Z,19.58
2022-11-25T06:31:18.189Z,19.88
2022-11-25T06:33:49.513Z,19.75
2022-11-25T06:36:17.683Z,19.27
2022-11-25T06:38:49.115Z,21.08
2022-11-25T06:41:16.497Z,21.13
2022-11-25T06:43:42.948Z,21.33
2022-11-25T06:46:17.428Z,22.48
2022-11-25T06:51:15.802Z,19.15
2022-11-25T06:53:42.742Z,18.58
2022-11-25T06:56:13.867Z,19.95
2022-11-25T06:58:41.478Z,22.60
2022-11-25T07:01:13.330Z,24.02
2022-11-25T07:03:41.375Z,22.75
2022-11-25T07:06:07.834Z,24.85
2022-11-25T07:08:34.679Z,24.42
2022-11-25T07:11:07.067Z,22.13
2022-11-25T07:13:34.175Z,21.77
2022-11-25T07:16:02.952Z,23.20
2022-11-25T07:18:31.731Z,24.98
2022-11-25T07:21:07.284Z,30.40
2022-11-25T07:23:34.650Z,29.48
2022-11-25T07:26:02.875Z,32.58
2022-11-25T07:28:29.463Z,27.35
2022-11-25T07:31:22.902Z,29.23
2022-11-25T07:33:42.688Z,27.63
2022-11-25T07:36:10.701Z,21.45
2022-11-25T07:38:42.126Z,21.05
2022-11-25T07:41:15.040Z,22.08
2022-11-25T07:43:44.718Z,22.60
2022-11-25T07:46:16.438Z,23.02
2022-11-25T07:48:43.066Z,27.55
2022-11-25T07:51:24.707Z,22.85
2022-11-25T07:53:54.453Z,25.35
2022-11-25T07:56:21.787Z,23.58
2022-11-25T07:58:48.507Z,26.48
2022-11-25T08:01:16.445Z,25.45
2022-11-25T08:03:44.176Z,24.85
2022-11-25T08:06:13.331Z,26.02
2022-11-25T08:08:41.333Z,27.10
2022-11-25T08:11:13.377Z,28.73
2022-11-25T08:16:07.539Z,23.88
2022-11-25T08:18:34.586Z,23.95
2022-11-25T08:21:02.479Z,19.27
2022-11-25T08:23:28.971Z,20.98
2022-11-25T08:25:55.586Z,22.30
2022-11-25T08:28:22.146Z,22.52
2022-11-25T08:30:48.638Z,20.77
2022-11-25T08:33:15.138Z,21.58
2022-11-25T08:35:41.633Z,20.35
2022-11-25T08:38:15.590Z,19.95
2022-11-25T08:40:44.247Z,20.92
2022-11-25T08:43:10.705Z,19.48
2022-11-25T08:45:39.622Z,20.15
2022-11-25T08:48:07.055Z,18.20
2022-11-25T08:50:33.698Z,18.73
2022-11-25T08:53:01.594Z,19.90
2022-11-25T08:55:29.082Z,18.67
2022-11-25T08:57:55.771Z,18.45
2022-11-25T09:00:24.034Z,19.52
2022-11-25T09:02:50.500Z,18.73
2022-11-25T09:05:17.191Z,18.42
2022-11-25T09:07:43.716Z,18.27
2022-11-25T09:10:15.393Z,17.58
2022-11-25T09:12:41.821Z,18.70
2022-11-25T09:15:08.921Z,18.30
2022-11-25T09:17:37.278Z,17.58
2022-11-25T09:20:05.340Z,17.05
2022-11-25T09:22:32.435Z,15.77
2022-11-25T09:25:00.230Z,17.23
2022-11-25T09:27:26.640Z,16.60
2022-11-25T09:29:53.094Z,16.77
2022-11-25T09:32:19.500Z,17.52
2022-11-25T09:34:45.915Z,17.05
2022-11-25T09:37:12.305Z,15.30
2022-11-25T09:39:38.973Z,16.70
2022-11-25T09:43:05.501Z,14.77
2022-11-25T09:46:19.055Z,14.15
2022-11-25T09:48:59.904Z,15.13
2022-11-25T09:51:50.240Z,14.75
2022-11-25T09:54:23.228Z,14.57
2022-11-25T09:57:00.495Z,13.98
2022-11-25T09:59:48.901Z,14.82
2022-11-25T10:02:30.285Z,17.30
2022-11-25T10:05:07.144Z,17.80
2022-11-25T10:07:43.915Z,16.13
2022-11-25T10:10:19.807Z,17.33
2022-11-25T10:12:48.845Z,18.45
2022-11-25T10:15:30.116Z,18.38
2022-11-25T10:18:03.053Z,18.48
2022-11-25T10:20:33.281Z,18.30
2022-11-25T10:23:27.658Z,19.65
2022-11-25T10:25:58.707Z,18.52
2022-11-25T10:28:30.953Z,17.75
2022-11-25T10:31:16.889Z,17.05
2022-11-25T10:33:58.518Z,17.98
2022-11-25T10:36:38.314Z,16.13
2022-11-25T10:39:19.993Z,17.20
2022-11-25T10:42:14.922Z,16.75
2022-11-25T10:44:42.178Z,17.30
2022-11-25T10:47:48.567Z,17.63
2022-11-25T10:50:35.738Z,16.17
2022-11-25T10:53:02.201Z,16.42
2022-11-25T10:55:31.674Z,17.70
2022-11-25T10:57:59.183Z,17.80
2022-11-25T11:00:30.250Z,16.17
2022-11-25T11:02:58.450Z,17.33
2022-11-25T11:05:30.801Z,16.08
2022-11-25T11:08:18.066Z,16.05
2022-11-25T11:10:44.849Z,17.50
2022-11-25T11:13:24.730Z,17.02
2022-11-25T11:15:52.479Z,17.52
2022-11-25T11:18:39.270Z,17.40
2022-11-25T11:21:20.201Z,16.77
2022-11-25T11:23:52.489Z,15.70
2022-11-25T11:26:31.565Z,17.55
2022-11-25T11:29:09.840Z,15.85
2022-11-25T11:31:45.099Z,15.75
2022-11-25T11:34:35.477Z,15.23
2022-11-25T11:37:30.053Z,15.90
2022-11-25T11:40:19.386Z,15.80
2022-11-25T11:43:02.622Z,15.63
2022-11-25T11:46:04.236Z,15.63
2022-11-25T11:48:53.613Z,15.68
2022-11-25T11:51:33.306Z,14.45
2022-11-25T11:54:32.471Z,14.95
2022-11-25T11:57:53.013Z,14.82
2022-11-25T12:00:22.987Z,16.23
2022-11-25T12:03:06.413Z,15.07
2022-11-25T12:05:37.253Z,14.20
2022-11-25T12:08:15.511Z,14.02
2022-11-25T12:10:48.220Z,14.45
2022-11-25T12:13:36.423Z,15.50
2022-11-25T12:16:29.430Z,14.88
2022-11-25T12:19:04.204Z,14.45
2022-11-25T12:21:41.549Z,15.38
2022-11-25T12:27:17.566Z,16.38
2022-11-25T12:29:57.369Z,16.38
2022-11-25T12:32:37.771Z,15.10
2022-11-25T12:35:10.269Z,17.33
2022-11-25T12:37:46.879Z,17.02
2022-11-25T12:40:18.493Z,17.77
2022-11-25T12:45:23.068Z,16.15
2022-11-25T12:47:49.970Z,17.77
2022-11-25T12:50:26.847Z,18.17
2022-11-25T12:53:15.216Z,18.85
2022-11-25T12:55:42.262Z,17.60
2022-11-25T12:58:44.494Z,17.95
2022-11-25T13:01:40.162Z,17.92
2022-11-25T13:04:28.536Z,20.13
2022-11-25T13:07:22.212Z,18.50
2022-11-25T13:09:59.779Z,18.15
2022-11-25T13:13:02.896Z,17.90
2022-11-25T13:15:57.194Z,18.40
2022-11-25T13:18:28.809Z,19.02
2022-11-25T13:20:56.769Z,19.20
2022-11-25T13:23:45.950Z,17.92
2022-11-25T13:26:34.506Z,18.35
2022-11-25T13:29:24.874Z,17.55
2022-11-25T13:32:01.138Z,19.17
2022-11-25T13:34:35.473Z,20.05
2022-11-25T13:37:22.932Z,19.63
2022-11-25T13:39:49.332Z,18.63
2022-11-25T13:42:24.445Z,18.17
2022-11-25T13:45:00.344Z,19.55
2022-11-25T13:47:42.844Z,19.25
2022-11-25T13:50:20.361Z,17.27
2022-11-25T13:52:49.646Z,17.38
2022-11-25T13:55:16.013Z,17.40
2022-11-25T13:57:46.170Z,17.63
2022-11-25T14:00:15.275Z,17.80
2022-11-25T14:02:46.665Z,16.52
2022-11-25T14:05:28.095Z,18.85
2022-11-25T14:08:30.816Z,17.00
2022-11-25T14:11:09.252Z,18.33
2022-11-25T14:13:55.276Z,16.17
2022-11-25T14:16:27.065Z,17.55
2022-11-25T14:19:50.206Z,19.73
2022-11-25T14:22:39.685Z,18.17
2022-11-25T14:25:30.342Z,18.48
2022-11-25T14:30:32.391Z,18.10
2022-11-25T14:33:07.933Z,17.67
2022-11-25T14:35:45.085Z,18.50
2022-11-25T14:38:37.643Z,19.15
2022-11-25T14:41:09.975Z,19.30
2022-11-25T14:43:47.342Z,18.88
2022-11-25T14:46:22.415Z,17.60
2022-11-25T14:48:55.978Z,18.55
2022-11-25T14:51:23.611Z,19.42
2022-11-25T14:53:51.096Z,18.55
2022-11-25T14:56:24.007Z,18.60
2022-11-25T14:58:53.869Z,19.25
2022-11-25T15:01:28.778Z,18.50
2022-11-25T15:04:23.153Z,19.55
2022-11-25T15:06:57.655Z,17.77
2022-11-25T15:09:36.567Z,17.92
2022-11-25T15:12:13.895Z,16.40
2022-11-25T15:14:50.328Z,19.38
2022-11-25T15:17:29.573Z,17.23
2022-11-25T15:19:59.123Z,17.20
2022-11-25T15:22:25.565Z,18.48
2022-11-25T15:24:55.952Z,18.10
2022-11-25T15:27:28.329Z,17.83
2022-11-25T15:29:56.700Z,17.52
2022-11-25T15:32:29.515Z,18.83
2022-11-25T15:34:58.069Z,18.65
2022-11-25T15:37:24.645Z,18.10
2022-11-25T15:40:29.508Z,16.98
2022-11-25T15:42:57.736Z,17.65
2022-11-25T15:45:25.570Z,17.67
2022-11-25T15:47:52.044Z,16.58
2022-11-25T15:50:24.015Z,17.20
2022-11-25T15:52:53.864Z,17.80
2022-11-25T15:55:30.052Z,17.60
2022-11-25T15:58:02.646Z,17.00
2022-11-25T16:00:29.067Z,16.88
2022-11-25T16:02:57.645Z,15.02
2022-11-25T16:05:35.927Z,17.60
2022-11-25T16:08:18.175Z,18.20
2022-11-25T16:10:44.544Z,18.08
2022-11-25T16:13:22.149Z,18.27
2022-11-25T16:18:39.318Z,18.17
2022-11-25T16:21:10.509Z,18.23
2022-11-25T16:23:42.553Z,18.60
2022-11-25T16:26:11.880Z,18.13
2022-11-25T16:28:41.451Z,17.77
2022-11-25T16:31:15.508Z,17.33
2022-11-25T16:33:42.036Z,18.27
2022-11-25T16:36:09.760Z,17.67
2022-11-25T16:38:36.388Z,18.15
2022-11-25T16:41:11.955Z,16.92
2022-11-25T16:43:40.091Z,17.35
2022-11-25T16:46:06.829Z,16.67
2022-11-25T16:48:33.375Z,18.00
2022-11-25T16:51:00.542Z,17.48
2022-11-25T16:53:27.038Z,17.60
2022-11-25T16:55:53.465Z,18.98
2022-11-25T16:58:24.084Z,16.90
2022-11-25T17:00:55.762Z,17.73
2022-11-25T17:03:26.140Z,17.02
2022-11-25T17:05:53.143Z,16.75
2022-11-25T17:08:19.678Z,18.08
2022-11-25T17:10:46.480Z,17.48
2022-11-25T17:13:23.286Z,17.83
2022-11-25T17:15:50.285Z,15.18
2022-11-25T17:18:18.534Z,16.70
2022-11-25T17:20:47.467Z,16.70
2022-11-25T17:23:16.111Z,16.38
2022-11-25T17:25:49.217Z,17.55
2022-11-25T17:28:20.803Z,16.65
2022-11-25T17:30:47.894Z,16.98
2022-11-25T17:33:20.074Z,15.82
2022-11-25T17:35:46.586Z,17.60
2022-11-25T17:38:19.154Z,17.30
2022-11-25T17:40:46.512Z,18.52
2022-11-25T17:43:18.995Z,19.13
2022-11-25T17:45:46.318Z,19.65
2022-11-25T17:48:15.415Z,19.70
2022-11-25T17:50:42.302Z,21.02
2022-11-25T17:53:09.531Z,19.40
2022-11-25T17:55:37.700Z,19.02
2022-11-25T17:58:04.742Z,18.13
2022-11-25T18:00:33.310Z,17.90
2022-11-25T18:02:59.990Z,19.17
2022-11-25T18:05:27.038Z,19.38
2022-11-25T18:07:53.784Z,20.20
2022-11-25T18:10:24.367Z,26.90
2022-11-25T18:12:52.978Z,23.42
2022-11-25T18:15:30.372Z,21.63
2022-11-25T18:18:06.321Z,31.75
2022-11-25T18:20:33.477Z,26.38
2022-11-25T18:23:00.869Z,17.70
2022-11-25T18:25:31.413Z,30.58
2022-11-25T18:27:59.878Z,26.50
2022-11-25T18:30:29.383Z,33.47
2022-11-25T18:32:57.215Z,30.27
2022-11-25T18:35:35.488Z,27.52
2022-11-25T18:38:02.728Z,29.98
2022-11-25T18:40:29.683Z,17.88
2022-11-25T18:43:00.227Z,17.63
2022-11-25T18:45:37.547Z,17.73
2022-11-25T18:48:15.817Z,17.00
2022-11-25T18:50:44.168Z,16.17
2022-11-25T18:53:10.912Z,20.42
2022-11-25T18:55:37.421Z,21.58
2022-11-25T18:58:06.656Z,17.92
2022-11-25T19:00:33.669Z,19.08
2022-11-25T19:03:02.130Z,21.40
2022-11-25T19:05:32.740Z,23.27
2022-11-25T19:08:00.341Z,28.88
2022-11-25T19:10:35.430Z,25.17
2022-11-25T19:13:05.634Z,22.02
2022-11-25T19:15:33.137Z,21.73
2022-11-25T19:18:02.059Z,21.35
2022-11-25T19:20:30.152Z,18.00
2022-11-25T19:23:00.914Z,18.48
2022-11-25T19:25:27.891Z,19.30
2022-11-25T19:27:58.513Z,18.70
2022-11-25T19:30:27.580Z,17.88
2022-11-25T19:32:57.608Z,20.30
2022-11-25T19:35:31.935Z,19.15
2022-11-25T19:37:58.551Z,18.83
2022-11-25T19:40:25.176Z,17.35
2022-11-25T19:42:51.842Z,17.25
2022-11-25T19:45:20.679Z,17.73
2022-11-25T19:47:49.947Z,16.60
2022-11-25T19:50:26.196Z,17.60
2022-11-25T19:52:53.052Z,18.35
2022-11-25T19:55:22.198Z,16.63
2022-11-25T19:57:49.688Z,18.15
2022-11-25T20:00:18.352Z,17.77
2022-11-25T20:02:46.443Z,17.30
2022-11-25T20:05:22.683Z,17.38
2022-11-25T20:07:49.163Z,18.95
2022-11-25T20:10:22.160Z,18.20
2022-11-25T20:12:49.317Z,17.55
2022-11-25T20:15:15.915Z,18.08
2022-11-25T20:17:45.316Z,18.30
2022-11-25T20:20:18.286Z,18.42
2022-11-25T20:22:59.719Z,18.30
2022-11-25T20:25:27.700Z,19.25
2022-11-25T20:27:54.656Z,18.42
2022-11-25T20:30:23.960Z,18.50
2022-11-25T20:32:51.093Z,17.92
2022-11-25T20:35:17.682Z,16.48
2022-11-25T20:38:01.297Z,17.77
2022-11-25T20:40:36.656Z,19.30
2022-11-25T20:43:03.058Z,19.42
2022-11-25T20:45:29.568Z,17.08
2022-11-25T20:47:56.314Z,17.98
2022-11-25T20:50:22.755Z,16.83
2022-11-25T20:52:50.264Z,17.75
2022-11-25T20:55:24.994Z,17.80
2022-11-25T20:57:52.304Z,15.77
2022-11-25T21:00:24.267Z,16.77
2022-11-25T21:02:53.537Z,16.10
2022-11-25T21:05:20.642Z,17.02
2022-11-25T21:07:50.848Z,19.13
2022-11-25T21:10:24.990Z,17.65
2022-11-25T21:12:51.940Z,17.55
2022-11-25T21:15:21.578Z,17.17
2022-11-25T21:17:48.314Z,19.02
2022-11-25T21:20:15.974Z,17.90
2022-11-25T21:22:45.881Z,17.42
2022-11-25T21:25:15.401Z,18.60
2022-11-25T21:27:42.239Z,18.13
2022-11-25T21:30:18.357Z,19.58
2022-11-25T21:32:45.508Z,18.00
2022-11-25T21:35:12.916Z,18.67
2022-11-25T21:37:43.790Z,18.63
2022-11-25T21:40:26.811Z,18.45
2022-11-25T21:42:53.449Z,16.40
2022-11-25T21:45:20.002Z,15.88
2022-11-25T21:47:46.419Z,17.55
2022-11-25T21:50:17.195Z,16.52
2022-11-25T21:52:43.599Z,17.85
2022-11-25T21:55:15.726Z,16.80
2022-11-25T21:57:42.689Z,15.50
2022-11-25T22:00:20.486Z,16.23
2022-11-25T22:02:47.234Z,16.55
2022-11-25T22:05:16.639Z,16.10
2022-11-25T22:07:43.253Z,16.80
2022-11-25T22:10:11.107Z,17.92
2022-11-25T22:12:41.479Z,17.60
2022-11-25T22:15:19.997Z,18.13
2022-11-25T22:17:47.085Z,16.98
2022-11-25T22:20:40.345Z,16.88
2022-11-25T22:23:18.243Z,16.98
2022-11-25T22:25:45.961Z,15.55
2022-11-25T22:28:15.308Z,15.82
2022-11-25T22:30:50.004Z,15.63
2022-11-25T22:33:19.450Z,14.25
2022-11-25T22:35:46.127Z,16.23
2022-11-25T22:38:14.139Z,15.15
2022-11-25T22:40:43.940Z,14.95
2022-11-25T22:43:19.259Z,15.15
2022-11-25T22:45:46.380Z,15.13
2022-11-25T22:48:16.824Z,15.32
2022-11-25T22:50:45.758Z,13.48
2022-11-25T22:53:15.095Z,13.18
2022-11-25T22:55:41.705Z,12.23
2022-11-25T22:58:08.216Z,13.38
2022-11-25T23:00:37.682Z,13.25
2022-11-25T23:03:06.714Z,14.77
2022-11-25T23:05:36.186Z,13.85
2022-11-25T23:08:11.303Z,13.90
2022-11-25T23:10:37.854Z,12.80
2022-11-25T23:13:04.275Z,13.98
2022-11-25T23:15:31.015Z,12.40
2022-11-25T23:17:59.506Z,12.35
2022-11-25T23:20:30.477Z,12.07
2022-11-25T23:22:57.917Z,13.57
2022-11-25T23:25:24.354Z,12.23
2022-11-25T23:27:50.924Z,12.43
2022-11-25T23:30:20.334Z,11.60
2022-11-25T23:32:49.759Z,13.10
2022-11-25T23:35:18.303Z,12.75
2022-11-25T23:37:47.879Z,13.85
2022-11-25T23:40:18.991Z,12.75
2022-11-25T23:42:45.823Z,11.48
2022-11-25T23:45:20.368Z,13.30
2022-11-25T23:47:48.752Z,12.70
2022-11-25T23:50:25.129Z,12.38
2022-11-25T23:52:55.705Z,13.52
2022-11-25T23:55:26.805Z,13.68
2022-11-25T23:57:53.599Z,12.98
